Terminal Aerodrome Forecast
Issued by NWS

Home | Current Version | Previous Version | Graphics & Text | Print | Product List | Glossary On
Versions: 1 2 3 4 5 6 7 8 9 10 11 12 13 14 15
952
FTUS43 KBIS 211726
TAFMOT
TAF
KMOT 211726Z 2118/2218 VRB14G25KT P6SM -TSRA SCT040 BKN070CB BKN200
     FM211900 01008KT P6SM VCTS FEW070CB SCT200
     FM212000 32012KT P6SM VCTS FEW070CB SCT150
     FM220100 30010KT P6SM FEW060 SCT200
     FM220500 26007KT P6SM FEW140 FEW250
     FM221400 28012KT P6SM FEW100 FEW250
     FM221700 29018G26KT P6SM FEW070 FEW200=

USA.gov is the U.S. government's official web portal to all federal, state and local government web resources and services.